Calgary Design District, Alberta

5:55 PM MDT on October 21, 2019 (GMT -0600)
West Hillhurst | | Change Station

Elev 3442 ft 51.06 °N, 114.10 °W | Updated 12 seconds ago

Partly Cloudy
Partly Cloudy
48.6 °F
Feels Like 49 °F
N
0
Wind Variable Wind from South
Gusts 0.0 mph

Today
High -- | Low -- °F
--% Chance of Precip.
Yesterday
High -- | Low -- °F
Precip. -- in
Pressure 30.01 in
Visibility 40.0 miles
Clouds Few 18000 ft
Scattered Clouds 25000 ft
Windchill 49 °F
Dew Point 20 °F
Humidity 32%
Rainfall 0.00 in
Snow Depth Not available.
8:09 AM 6:31 PM
Last Quarter, 45% visible
METAR CYYC 212300Z 28013G22KT 40SM FEW180 SCT250 10/M08 A2991 RMK AC1CI2 SLP163 DENSITY ALT 4000FT
Pressure 30.01 in
Visibility 40.0 miles
Clouds Few 18000 ft
Scattered Clouds 25000 ft
Windchill 49 °F
Dew Point 20 °F
Humidity 32%
Rainfall 0.00 in
Snow Depth Not available.
8:09 AM 6:31 PM
Last Quarter, 45% visible
METAR CYYC 212300Z 28013G22KT 40SM FEW180 SCT250 10/M08 A2991 RMK AC1CI2 SLP163 DENSITY ALT 4000FT

Get Severe Weather Alerts

Thanks for signing up!

Be on the lookout for a verification email in your inbox.

You'll start receiving the daily forecast at 6 AM.

×

10-Day Weather Forecast

Almanac

Astronomy

Oct. 21, 2019 Rise Set
Actual Time
Civil Twilight
Nautical Twilight
Astronomical Twilight
Moon
Length of Visible Light
Length of Day
Tomorrow will be .
, % of the Moon is Illuminated

Today's Extremes

Country Highs Country Lows

Community

WunderPhotos

Category 6

Welcome to Category 6. This is the collective home for Weather Underground's featured writeups by Dr. Jeff Masters (right), Bob Henson (left), Chris Burt, and other regular contributors.

Nearby

Air Quality

  Air Quality AQ Index Pollutant
Not available.

Snow Depth

Station Depth Elevation

Earthquake Activity

City Distance Mag. Time & Date
Minimum magnitude displayed is 2.5.

Coastal Water Temperatures

Place Temperature

Stations

Nearby Weather Stations

Station Location Temp. Windchill Dew Point Humidity Wind Precip. Elev Updated Type
                   

Watches & Warnings

There are currently no watches in effect.